sensor_id;sensor_type;location;lat;lon;timestamp;pressure;altitude;pressure_sealevel;temperature;humidity
53550;BME280;73079;52.914;-0.982;2024-01-30T00:01:08;101443.13;;;10.09;100.00
53550;BME280;73079;52.914;-0.982;2024-01-30T00:03:34;101437.94;;;10.16;100.00
53550;BME280;73079;52.914;-0.982;2024-01-30T00:06:02;101446.63;;;10.10;100.00
53550;BME280;73079;52.914;-0.982;2024-01-30T00:08:28;101457.56;;;10.17;100.00
53550;BME280;73079;52.914;-0.982;2024-01-30T00:10:54;101453.22;;;10.24;100.00
53550;BME280;73079;52.914;-0.982;2024-01-30T00:13:20;101449.88;;;10.22;100.00
53550;BME280;73079;52.914;-0.982;2024-01-30T00:15:46;101454.06;;;10.24;100.00
53550;BME280;73079;52.914;-0.982;2024-01-30T00:18:12;101445.84;;;10.26;100.00
53550;BME280;73079;52.914;-0.982;2024-01-30T00:20:37;101451.53;;;10.23;100.00
53550;BME280;73079;52.914;-0.982;2024-01-30T00:23:05;101457.25;;;10.20;100.00
53550;BME280;73079;52.914;-0.982;2024-01-30T00:25:30;101455.41;;;10.20;100.00
53550;BME280;73079;52.914;-0.982;2024-01-30T00:27:56;101449.25;;;10.36;100.00
53550;BME280;73079;52.914;-0.982;2024-01-30T00:30:22;101448.59;;;10.42;100.00
53550;BME280;73079;52.914;-0.982;2024-01-30T00:32:48;101449.25;;;10.44;100.00
53550;BME280;73079;52.914;-0.982;2024-01-30T00:35:13;101443.56;;;10.48;100.00
53550;BME280;73079;52.914;-0.982;2024-01-30T00:37:39;101438.19;;;10.48;100.00
53550;BME280;73079;52.914;-0.982;2024-01-30T00:40:07;101446.56;;;10.36;100.00
53550;BME280;73079;52.914;-0.982;2024-01-30T00:42:33;101444.88;;;10.35;100.00
53550;BME280;73079;52.914;-0.982;2024-01-30T00:44:59;101440.22;;;10.45;100.00
53550;BME280;73079;52.914;-0.982;2024-01-30T00:47:24;101445.94;;;10.51;100.00
53550;BME280;73079;52.914;-0.982;2024-01-30T00:49:50;101453.97;;;10.42;100.00
53550;BME280;73079;52.914;-0.982;2024-01-30T00:52:16;101436.19;;;10.50;100.00
53550;BME280;73079;52.914;-0.982;2024-01-30T00:54:42;101434.00;;;10.45;100.00
53550;BME280;73079;52.914;-0.982;2024-01-30T00:57:09;101441.22;;;10.36;100.00
53550;BME280;73079;52.914;-0.982;2024-01-30T00:59:35;101431.16;;;10.46;100.00
53550;BME280;73079;52.914;-0.982;2024-01-30T01:02:01;101433.13;;;10.44;100.00
53550;BME280;73079;52.914;-0.982;2024-01-30T01:04:27;101430.81;;;10.50;100.00
53550;BME280;73079;52.914;-0.982;2024-01-30T01:06:53;101428.47;;;10.46;100.00
53550;BME280;73079;52.914;-0.982;2024-01-30T01:09:18;101431.47;;;10.43;100.00
53550;BME280;73079;52.914;-0.982;2024-01-30T01:11:44;101431.63;;;10.42;100.00
53550;BME280;73079;52.914;-0.982;2024-01-30T01:14:11;101428.97;;;10.42;100.00
53550;BME280;73079;52.914;-0.982;2024-01-30T01:16:37;101426.13;;;10.52;100.00
53550;BME280;73079;52.914;-0.982;2024-01-30T01:19:03;101427.78;;;10.36;100.00
53550;BME280;73079;52.914;-0.982;2024-01-30T01:21:29;101422.41;;;10.44;100.00
53550;BME280;73079;52.914;-0.982;2024-01-30T01:23:54;101416.69;;;10.48;100.00
53550;BME280;73079;52.914;-0.982;2024-01-30T01:26:23;101411.66;;;10.53;100.00
53550;BME280;73079;52.914;-0.982;2024-01-30T01:28:48;101415.00;;;10.38;100.00
53550;BME280;73079;52.914;-0.982;2024-01-30T01:31:16;101418.56;;;10.47;100.00
53550;BME280;73079;52.914;-0.982;2024-01-30T01:33:43;101415.03;;;10.46;100.00
53550;BME280;73079;52.914;-0.982;2024-01-30T01:36:08;101422.75;;;10.41;100.00
53550;BME280;73079;52.914;-0.982;2024-01-30T01:38:34;101419.38;;;10.48;100.00
53550;BME280;73079;52.914;-0.982;2024-01-30T01:41:00;101416.69;;;10.31;100.00
53550;BME280;73079;52.914;-0.982;2024-01-30T01:43:26;101414.34;;;10.36;100.00
53550;BME280;73079;52.914;-0.982;2024-01-30T01:45:51;101414.28;;;10.28;100.00
53550;BME280;73079;52.914;-0.982;2024-01-30T01:48:19;101427.72;;;10.28;100.00
53550;BME280;73079;52.914;-0.982;2024-01-30T01:50:45;101438.75;;;10.08;100.00
53550;BME280;73079;52.914;-0.982;2024-01-30T01:53:11;101435.41;;;10.15;100.00
53550;BME280;73079;52.914;-0.982;2024-01-30T01:55:37;101436.91;;;10.09;100.00
53550;BME280;73079;52.914;-0.982;2024-01-30T01:58:04;101448.69;;;10.16;100.00
53550;BME280;73079;52.914;-0.982;2024-01-30T02:00:30;101437.59;;;10.11;100.00
53550;BME280;73079;52.914;-0.982;2024-01-30T02:02:57;101437.59;;;10.19;100.00
53550;BME280;73079;52.914;-0.982;2024-01-30T02:05:24;101440.44;;;10.18;100.00
53550;BME280;73079;52.914;-0.982;2024-01-30T02:07:50;101436.94;;;10.17;100.00
53550;BME280;73079;52.914;-0.982;2024-01-30T02:10:17;101434.41;;;10.16;100.00
53550;BME280;73079;52.914;-0.982;2024-01-30T02:12:43;101428.88;;;10.09;100.00
53550;BME280;73079;52.914;-0.982;2024-01-30T02:15:13;101418.78;;;10.19;100.00
53550;BME280;73079;52.914;-0.982;2024-01-30T02:17:39;101432.06;;;10.21;100.00
53550;BME280;73079;52.914;-0.982;2024-01-30T02:20:05;101426.03;;;10.19;100.00
53550;BME280;73079;52.914;-0.982;2024-01-30T02:22:33;101427.72;;;10.20;100.00
53550;BME280;73079;52.914;-0.982;2024-01-30T02:25:00;101420.97;;;10.07;100.00
53550;BME280;73079;52.914;-0.982;2024-01-30T02:27:26;101424.28;;;10.01;100.00
53550;BME280;73079;52.914;-0.982;2024-01-30T02:29:52;101417.25;;;10.00;100.00
53550;BME280;73079;52.914;-0.982;2024-01-30T02:32:17;101414.50;;;9.84;100.00
53550;BME280;73079;52.914;-0.982;2024-01-30T02:34:43;101413.53;;;9.93;100.00
53550;BME280;73079;52.914;-0.982;2024-01-30T02:37:09;101412.50;;;9.86;100.00
53550;BME280;73079;52.914;-0.982;2024-01-30T02:39:36;101423.41;;;9.93;100.00
53550;BME280;73079;52.914;-0.982;2024-01-30T02:42:02;101417.16;;;9.76;100.00
53550;BME280;73079;52.914;-0.982;2024-01-30T02:44:28;101409.94;;;9.76;100.00
53550;BME280;73079;52.914;-0.982;2024-01-30T02:46:53;101415.16;;;9.78;100.00
53550;BME280;73079;52.914;-0.982;2024-01-30T02:49:20;101408.81;;;9.87;100.00
53550;BME280;73079;52.914;-0.982;2024-01-30T02:51:46;101413.03;;;9.89;100.00
53550;BME280;73079;52.914;-0.982;2024-01-30T02:54:12;101419.94;;;10.00;100.00
53550;BME280;73079;52.914;-0.982;2024-01-30T02:56:39;101425.22;;;9.84;100.00
53550;BME280;73079;52.914;-0.982;2024-01-30T02:59:05;101423.72;;;9.81;100.00
53550;BME280;73079;52.914;-0.982;2024-01-30T03:01:31;101426.25;;;9.83;100.00
53550;BME280;73079;52.914;-0.982;2024-01-30T03:03:59;101415.34;;;9.84;100.00
53550;BME280;73079;52.914;-0.982;2024-01-30T03:06:28;101412.84;;;9.83;100.00
53550;BME280;73079;52.914;-0.982;2024-01-30T03:08:56;101415.47;;;9.75;100.00
53550;BME280;73079;52.914;-0.982;2024-01-30T03:11:26;101408.19;;;9.93;100.00
53550;BME280;73079;52.914;-0.982;2024-01-30T03:13:57;101406.53;;;10.00;100.00
53550;BME280;73079;52.914;-0.982;2024-01-30T03:16:25;101402.09;;;9.83;100.00
53550;BME280;73079;52.914;-0.982;2024-01-30T03:18:55;101408.13;;;9.85;100.00
53550;BME280;73079;52.914;-0.982;2024-01-30T03:21:25;101413.00;;;9.81;100.00
53550;BME280;73079;52.914;-0.982;2024-01-30T03:23:54;101406.69;;;9.64;100.00
53550;BME280;73079;52.914;-0.982;2024-01-30T03:26:22;101418.09;;;9.58;100.00
53550;BME280;73079;52.914;-0.982;2024-01-30T03:28:51;101416.44;;;9.65;100.00
53550;BME280;73079;52.914;-0.982;2024-01-30T03:31:21;101421.81;;;9.65;100.00
53550;BME280;73079;52.914;-0.982;2024-01-30T03:33:51;101413.66;;;9.83;100.00
53550;BME280;73079;52.914;-0.982;2024-01-30T03:36:17;101413.97;;;9.72;100.00
53550;BME280;73079;52.914;-0.982;2024-01-30T03:38:43;101428.88;;;9.75;100.00
53550;BME280;73079;52.914;-0.982;2024-01-30T03:41:09;101428.41;;;9.79;100.00
53550;BME280;73079;52.914;-0.982;2024-01-30T03:43:35;101417.16;;;9.76;100.00
53550;BME280;73079;52.914;-0.982;2024-01-30T03:46:01;101434.63;;;9.80;100.00
53550;BME280;73079;52.914;-0.982;2024-01-30T03:48:29;101430.59;;;9.84;100.00
53550;BME280;73079;52.914;-0.982;2024-01-30T03:50:57;101432.91;;;9.79;100.00
53550;BME280;73079;52.914;-0.982;2024-01-30T03:53:26;101440.97;;;9.70;100.00
53550;BME280;73079;52.914;-0.982;2024-01-30T03:55:53;101444.97;;;9.66;100.00
53550;BME280;73079;52.914;-0.982;2024-01-30T03:58:19;101454.75;;;9.76;100.00
53550;BME280;73079;52.914;-0.982;2024-01-30T04:00:44;101451.03;;;9.77;100.00
53550;BME280;73079;52.914;-0.982;2024-01-30T04:03:10;101444.97;;;9.66;100.00
53550;BME280;73079;52.914;-0.982;2024-01-30T04:05:37;101458.41;;;9.75;100.00
53550;BME280;73079;52.914;-0.982;2024-01-30T04:08:03;101472.94;;;9.64;100.00
53550;BME280;73079;52.914;-0.982;2024-01-30T04:10:29;101474.59;;;9.57;100.00
53550;BME280;73079;52.914;-0.982;2024-01-30T04:12:55;101482.75;;;9.47;100.00
53550;BME280;73079;52.914;-0.982;2024-01-30T04:15:21;101491.53;;;9.13;100.00
53550;BME280;73079;52.914;-0.982;2024-01-30T04:17:47;101488.88;;;8.95;100.00
53550;BME280;73079;52.914;-0.982;2024-01-30T04:20:14;101502.06;;;8.70;100.00
53550;BME280;73079;52.914;-0.982;2024-01-30T04:22:42;101517.38;;;8.60;100.00
53550;BME280;73079;52.914;-0.982;2024-01-30T04:25:08;101514.34;;;8.45;100.00
53550;BME280;73079;52.914;-0.982;2024-01-30T04:27:34;101513.91;;;8.40;100.00
53550;BME280;73079;52.914;-0.982;2024-01-30T04:29:59;101511.09;;;8.42;100.00
53550;BME280;73079;52.914;-0.982;2024-01-30T04:32:25;101522.13;;;8.38;100.00
53550;BME280;73079;52.914;-0.982;2024-01-30T04:34:51;101529.91;;;8.32;100.00
53550;BME280;73079;52.914;-0.982;2024-01-30T04:37:17;101525.41;;;8.32;100.00
53550;BME280;73079;52.914;-0.982;2024-01-30T04:39:44;101531.38;;;8.16;100.00
53550;BME280;73079;52.914;-0.982;2024-01-30T04:42:09;101540.13;;;8.18;100.00
53550;BME280;73079;52.914;-0.982;2024-01-30T04:44:35;101548.16;;;8.18;100.00
53550;BME280;73079;52.914;-0.982;2024-01-30T04:47:01;101549.97;;;8.18;100.00
53550;BME280;73079;52.914;-0.982;2024-01-30T04:49:27;101564.59;;;8.24;100.00
53550;BME280;73079;52.914;-0.982;2024-01-30T04:51:52;101567.28;;;8.24;100.00
53550;BME280;73079;52.914;-0.982;2024-01-30T04:54:18;101567.78;;;8.09;100.00
53550;BME280;73079;52.914;-0.982;2024-01-30T04:56:45;101573.13;;;8.09;100.00
53550;BME280;73079;52.914;-0.982;2024-01-30T04:59:11;101581.75;;;8.03;100.00
53550;BME280;73079;52.914;-0.982;2024-01-30T05:01:37;101579.06;;;8.03;100.00
53550;BME280;73079;52.914;-0.982;2024-01-30T05:04:03;101584.44;;;8.03;100.00
53550;BME280;73079;52.914;-0.982;2024-01-30T05:06:29;101598.78;;;8.02;100.00
53550;BME280;73079;52.914;-0.982;2024-01-30T05:08:55;101599.22;;;7.97;100.00
53550;BME280;73079;52.914;-0.982;2024-01-30T05:11:21;101595.84;;;7.95;100.00
53550;BME280;73079;52.914;-0.982;2024-01-30T05:13:48;101612.34;;;7.91;100.00
53550;BME280;73079;52.914;-0.982;2024-01-30T05:16:14;101615.41;;;8.06;100.00
53550;BME280;73079;52.914;-0.982;2024-01-30T05:18:39;101617.97;;;7.88;100.00
53550;BME280;73079;52.914;-0.982;2024-01-30T05:21:05;101625.03;;;7.89;100.00
53550;BME280;73079;52.914;-0.982;2024-01-30T05:23:31;101632.09;;;7.80;100.00
53550;BME280;73079;52.914;-0.982;2024-01-30T05:25:57;101630.94;;;7.83;100.00
53550;BME280;73079;52.914;-0.982;2024-01-30T05:28:22;101640.81;;;7.72;100.00
53550;BME280;73079;52.914;-0.982;2024-01-30T05:30:49;101645.59;;;7.78;100.00
53550;BME280;73079;52.914;-0.982;2024-01-30T05:33:15;101655.88;;;7.73;100.00
53550;BME280;73079;52.914;-0.982;2024-01-30T05:35:41;101667.84;;;7.59;100.00
53550;BME280;73079;52.914;-0.982;2024-01-30T05:38:07;101664.47;;;7.48;100.00
53550;BME280;73079;52.914;-0.982;2024-01-30T05:40:33;101669.13;;;7.46;100.00
53550;BME280;73079;52.914;-0.982;2024-01-30T05:42:59;101677.28;;;7.34;100.00
53550;BME280;73079;52.914;-0.982;2024-01-30T05:45:26;101675.72;;;7.32;100.00
53550;BME280;73079;52.914;-0.982;2024-01-30T05:47:53;101683.91;;;7.30;100.00
53550;BME280;73079;52.914;-0.982;2024-01-30T05:50:19;101685.56;;;7.31;100.00
53550;BME280;73079;52.914;-0.982;2024-01-30T05:52:45;101697.22;;;7.20;100.00
53550;BME280;73079;52.914;-0.982;2024-01-30T05:55:11;101702.72;;;7.09;100.00
53550;BME280;73079;52.914;-0.982;2024-01-30T05:57:37;101714.47;;;6.97;100.00
53550;BME280;73079;52.914;-0.982;2024-01-30T06:00:03;101714.88;;;6.92;100.00
53550;BME280;73079;52.914;-0.982;2024-01-30T06:02:30;101712.47;;;6.89;100.00
53550;BME280;73079;52.914;-0.982;2024-01-30T06:04:58;101720.91;;;6.84;100.00
53550;BME280;73079;52.914;-0.982;2024-01-30T06:07:24;101724.28;;;6.87;100.00
53550;BME280;73079;52.914;-0.982;2024-01-30T06:09:50;101743.13;;;6.85;100.00
53550;BME280;73079;52.914;-0.982;2024-01-30T06:12:15;101741.69;;;6.81;100.00
53550;BME280;73079;52.914;-0.982;2024-01-30T06:14:41;101741.13;;;6.77;100.00
53550;BME280;73079;52.914;-0.982;2024-01-30T06:17:07;101748.88;;;6.80;100.00
53550;BME280;73079;52.914;-0.982;2024-01-30T06:19:33;101752.50;;;6.79;100.00
53550;BME280;73079;52.914;-0.982;2024-01-30T06:22:01;101754.22;;;6.80;100.00
53550;BME280;73079;52.914;-0.982;2024-01-30T06:24:26;101756.03;;;6.80;100.00
53550;BME280;73079;52.914;-0.982;2024-01-30T06:26:53;101770.31;;;6.69;100.00
53550;BME280;73079;52.914;-0.982;2024-01-30T06:29:19;101784.69;;;6.78;100.00
53550;BME280;73079;52.914;-0.982;2024-01-30T06:31:46;101786.91;;;6.73;100.00
53550;BME280;73079;52.914;-0.982;2024-01-30T06:34:12;101792.72;;;6.78;100.00
53550;BME280;73079;52.914;-0.982;2024-01-30T06:36:38;101797.84;;;6.70;100.00
53550;BME280;73079;52.914;-0.982;2024-01-30T06:39:06;101788.28;;;6.67;100.00
53550;BME280;73079;52.914;-0.982;2024-01-30T06:41:32;101796.53;;;6.54;100.00
53550;BME280;73079;52.914;-0.982;2024-01-30T06:43:58;101809.53;;;6.69;100.00
53550;BME280;73079;52.914;-0.982;2024-01-30T06:46:24;101816.63;;;6.58;100.00
53550;BME280;73079;52.914;-0.982;2024-01-30T06:48:50;101816.31;;;6.52;100.00
53550;BME280;73079;52.914;-0.982;2024-01-30T06:51:15;101830.91;;;6.47;100.00
53550;BME280;73079;52.914;-0.982;2024-01-30T06:53:41;101840.47;;;6.50;100.00
53550;BME280;73079;52.914;-0.982;2024-01-30T06:56:08;101834.38;;;6.59;100.00
53550;BME280;73079;52.914;-0.982;2024-01-30T06:58:34;101850.31;;;6.50;100.00
53550;BME280;73079;52.914;-0.982;2024-01-30T07:01:00;101850.31;;;6.50;100.00
53550;BME280;73079;52.914;-0.982;2024-01-30T07:03:25;101849.59;;;6.47;100.00
53550;BME280;73079;52.914;-0.982;2024-01-30T07:05:51;101846.06;;;6.47;100.00
53550;BME280;73079;52.914;-0.982;2024-01-30T07:08:17;101857.66;;;6.36;100.00
53550;BME280;73079;52.914;-0.982;2024-01-30T07:10:43;101857.53;;;6.38;100.00
53550;BME280;73079;52.914;-0.982;2024-01-30T07:13:10;101860.44;;;6.35;100.00
53550;BME280;73079;52.914;-0.982;2024-01-30T07:15:36;101868.47;;;6.35;100.00
53550;BME280;73079;52.914;-0.982;2024-01-30T07:18:02;101873.03;;;6.44;100.00
53550;BME280;73079;52.914;-0.982;2024-01-30T07:20:28;101885.13;;;6.48;100.00
53550;BME280;73079;52.914;-0.982;2024-01-30T07:22:55;101894.50;;;6.42;100.00
53550;BME280;73079;52.914;-0.982;2024-01-30T07:25:21;101902.91;;;6.38;100.00
53550;BME280;73079;52.914;-0.982;2024-01-30T07:27:52;101907.47;;;6.47;100.00
53550;BME280;73079;52.914;-0.982;2024-01-30T07:30:19;101900.56;;;6.44;100.00
53550;BME280;73079;52.914;-0.982;2024-01-30T07:32:46;101921.31;;;6.41;100.00
53550;BME280;73079;52.914;-0.982;2024-01-30T07:35:12;101923.03;;;6.42;100.00
53550;BME280;73079;52.914;-0.982;2024-01-30T07:37:38;101925.19;;;6.48;100.00
53550;BME280;73079;52.914;-0.982;2024-01-30T07:40:05;101929.34;;;6.41;100.00
53550;BME280;73079;52.914;-0.982;2024-01-30T07:42:32;101943.16;;;6.46;100.00
53550;BME280;73079;52.914;-0.982;2024-01-30T07:44:58;101944.47;;;6.52;100.00
53550;BME280;73079;52.914;-0.982;2024-01-30T07:47:25;101947.56;;;6.36;100.00
53550;BME280;73079;52.914;-0.982;2024-01-30T07:49:51;101952.88;;;6.47;100.00
53550;BME280;73079;52.914;-0.982;2024-01-30T07:52:16;101963.56;;;6.47;100.00
53550;BME280;73079;52.914;-0.982;2024-01-30T07:54:42;101958.09;;;6.37;100.00
53550;BME280;73079;52.914;-0.982;2024-01-30T07:57:08;101968.53;;;6.40;100.00
53550;BME280;73079;52.914;-0.982;2024-01-30T07:59:34;101965.41;;;6.35;100.00
53550;BME280;73079;52.914;-0.982;2024-01-30T08:02:00;101972.75;;;6.43;100.00
53550;BME280;73079;52.914;-0.982;2024-01-30T08:04:27;101977.66;;;6.26;100.00
53550;BME280;73079;52.914;-0.982;2024-01-30T08:06:53;101992.97;;;6.24;100.00
53550;BME280;73079;52.914;-0.982;2024-01-30T08:09:19;102002.16;;;6.32;100.00
53550;BME280;73079;52.914;-0.982;2024-01-30T08:11:44;102004.13;;;6.30;100.00
53550;BME280;73079;52.914;-0.982;2024-01-30T08:14:10;102013.47;;;6.13;100.00
53550;BME280;73079;52.914;-0.982;2024-01-30T08:16:36;102023.78;;;6.17;100.00
53550;BME280;73079;52.914;-0.982;2024-01-30T08:19:02;102022.56;;;6.21;100.00
53550;BME280;73079;52.914;-0.982;2024-01-30T08:21:29;102029.59;;;6.11;100.00
53550;BME280;73079;52.914;-0.982;2024-01-30T08:23:55;102035.81;;;6.12;100.00
53550;BME280;73079;52.914;-0.982;2024-01-30T08:26:21;102041.88;;;6.14;100.00
53550;BME280;73079;52.914;-0.982;2024-01-30T08:28:47;102044.41;;;6.15;100.00
53550;BME280;73079;52.914;-0.982;2024-01-30T08:31:13;102053.88;;;6.08;100.00
53550;BME280;73079;52.914;-0.982;2024-01-30T08:33:39;102048.19;;;6.01;100.00
53550;BME280;73079;52.914;-0.982;2024-01-30T08:36:05;102058.50;;;6.06;100.00
53550;BME280;73079;52.914;-0.982;2024-01-30T08:38:33;102056.53;;;5.97;100.00
53550;BME280;73079;52.914;-0.982;2024-01-30T08:40:58;102071.47;;;5.99;100.00
53550;BME280;73079;52.914;-0.982;2024-01-30T08:43:25;102085.13;;;5.95;100.00
53550;BME280;73079;52.914;-0.982;2024-01-30T08:45:50;102092.41;;;5.93;100.00
53550;BME280;73079;52.914;-0.982;2024-01-30T08:48:16;102105.00;;;5.90;100.00
53550;BME280;73079;52.914;-0.982;2024-01-30T08:50:43;102106.03;;;6.01;100.00
53550;BME280;73079;52.914;-0.982;2024-01-30T08:53:09;102112.59;;;6.08;100.00
53550;BME280;73079;52.914;-0.982;2024-01-30T08:55:36;102118.16;;;6.05;100.00
53550;BME280;73079;52.914;-0.982;2024-01-30T08:58:02;102123.72;;;6.02;100.00
53550;BME280;73079;52.914;-0.982;2024-01-30T09:00:30;102133.91;;;5.97;100.00
53550;BME280;73079;52.914;-0.982;2024-01-30T09:02:55;102137.44;;;5.97;100.00
53550;BME280;73079;52.914;-0.982;2024-01-30T09:05:21;102153.19;;;6.00;100.00
53550;BME280;73079;52.914;-0.982;2024-01-30T09:07:47;102153.19;;;6.00;100.00
53550;BME280;73079;52.914;-0.982;2024-01-30T09:10:13;102164.97;;;5.98;100.00
53550;BME280;73079;52.914;-0.982;2024-01-30T09:12:40;102164.22;;;5.96;100.00
53550;BME280;73079;52.914;-0.982;2024-01-30T09:15:06;102174.53;;;6.00;100.00
53550;BME280;73079;52.914;-0.982;2024-01-30T09:17:32;102184.81;;;5.94;100.00
53550;BME280;73079;52.914;-0.982;2024-01-30T09:19:59;102186.75;;;5.92;100.00
53550;BME280;73079;52.914;-0.982;2024-01-30T09:22:24;102194.75;;;5.92;100.00
53550;BME280;73079;52.914;-0.982;2024-01-30T09:24:50;102198.44;;;6.02;100.00
53550;BME280;73079;52.914;-0.982;2024-01-30T09:27:16;102203.75;;;6.02;100.00
53550;BME280;73079;52.914;-0.982;2024-01-30T09:29:43;102201.59;;;6.07;100.00
53550;BME280;73079;52.914;-0.982;2024-01-30T09:32:09;102212.03;;;6.10;100.00
53550;BME280;73079;52.914;-0.982;2024-01-30T09:34:35;102210.09;;;6.01;100.00
53550;BME280;73079;52.914;-0.982;2024-01-30T09:37:01;102214.97;;;6.18;100.00
53550;BME280;73079;52.914;-0.982;2024-01-30T09:39:27;102219.22;;;6.21;100.00
53550;BME280;73079;52.914;-0.982;2024-01-30T09:42:01;102220.88;;;6.11;100.00
53550;BME280;73079;52.914;-0.982;2024-01-30T09:44:29;102237.28;;;6.17;100.00
53550;BME280;73079;52.914;-0.982;2024-01-30T09:46:57;102230.28;;;6.27;100.00
53550;BME280;73079;52.914;-0.982;2024-01-30T09:49:30;102236.56;;;6.15;100.00
53550;BME280;73079;52.914;-0.982;2024-01-30T09:51:57;102241.19;;;6.24;100.00
53550;BME280;73079;52.914;-0.982;2024-01-30T09:54:23;102250.41;;;6.20;100.00
53550;BME280;73079;52.914;-0.982;2024-01-30T09:56:49;102247.56;;;6.11;100.00
53550;BME280;73079;52.914;-0.982;2024-01-30T09:59:15;102255.34;;;6.14;100.00
53550;BME280;73079;52.914;-0.982;2024-01-30T10:01:41;102269.41;;;6.16;100.00
53550;BME280;73079;52.914;-0.982;2024-01-30T10:04:09;102277.31;;;6.17;100.00
53550;BME280;73079;52.914;-0.982;2024-01-30T10:06:37;102282.44;;;6.20;100.00
53550;BME280;73079;52.914;-0.982;2024-01-30T10:09:03;102285.97;;;6.32;100.00
53550;BME280;73079;52.914;-0.982;2024-01-30T10:11:30;102295.56;;;6.35;100.00
53550;BME280;73079;52.914;-0.982;2024-01-30T10:13:56;102301.03;;;6.33;100.00
53550;BME280;73079;52.914;-0.982;2024-01-30T10:16:21;102303.47;;;6.36;100.00
53550;BME280;73079;52.914;-0.982;2024-01-30T10:18:47;102311.09;;;6.41;100.00
53550;BME280;73079;52.914;-0.982;2024-01-30T10:21:14;102310.59;;;6.36;100.00
53550;BME280;73079;52.914;-0.982;2024-01-30T10:23:40;102321.72;;;6.18;100.00
53550;BME280;73079;52.914;-0.982;2024-01-30T10:26:07;102325.03;;;6.33;100.00
53550;BME280;73079;52.914;-0.982;2024-01-30T10:28:33;102328.44;;;6.35;100.00
53550;BME280;73079;52.914;-0.982;2024-01-30T10:30:59;102329.59;;;6.55;100.00
53550;BME280;73079;52.914;-0.982;2024-01-30T10:33:25;102334.97;;;6.66;100.00
53550;BME280;73079;52.914;-0.982;2024-01-30T10:35:51;102341.03;;;6.69;100.00
53550;BME280;73079;52.914;-0.982;2024-01-30T10:38:20;102346.00;;;6.62;100.00
53550;BME280;73079;52.914;-0.982;2024-01-30T10:40:47;102355.00;;;6.83;100.00
53550;BME280;73079;52.914;-0.982;2024-01-30T10:43:19;102367.03;;;6.89;100.00
53550;BME280;73079;52.914;-0.982;2024-01-30T10:45:49;102368.91;;;7.11;100.00
53550;BME280;73079;52.914;-0.982;2024-01-30T10:48:17;102373.31;;;6.77;100.00
53550;BME280;73079;52.914;-0.982;2024-01-30T10:50:45;102377.00;;;6.87;100.00
53550;BME280;73079;52.914;-0.982;2024-01-30T10:53:11;102386.31;;;6.70;100.00
53550;BME280;73079;52.914;-0.982;2024-01-30T10:55:40;102403.63;;;6.53;100.00
53550;BME280;73079;52.914;-0.982;2024-01-30T10:58:07;102410.31;;;6.59;100.00
53550;BME280;73079;52.914;-0.982;2024-01-30T11:00:33;102411.06;;;6.61;100.00
53550;BME280;73079;52.914;-0.982;2024-01-30T11:03:00;102421.16;;;6.69;100.00
53550;BME280;73079;52.914;-0.982;2024-01-30T11:05:27;102416.84;;;6.79;100.00
53550;BME280;73079;52.914;-0.982;2024-01-30T11:07:53;102415.63;;;6.94;100.00
53550;BME280;73079;52.914;-0.982;2024-01-30T11:10:19;102418.06;;;6.86;100.00
53550;BME280;73079;52.914;-0.982;2024-01-30T11:12:46;102422.91;;;6.92;100.00
53550;BME280;73079;52.914;-0.982;2024-01-30T11:15:13;102424.41;;;7.08;100.00
53550;BME280;73079;52.914;-0.982;2024-01-30T11:17:49;102425.97;;;7.10;100.00
53550;BME280;73079;52.914;-0.982;2024-01-30T11:20:19;102437.16;;;7.04;100.00
53550;BME280;73079;52.914;-0.982;2024-01-30T11:22:47;102431.94;;;7.14;100.00
53550;BME280;73079;52.914;-0.982;2024-01-30T11:25:13;102434.13;;;7.09;100.00
53550;BME280;73079;52.914;-0.982;2024-01-30T11:27:41;102447.47;;;6.97;100.00
53550;BME280;73079;52.914;-0.982;2024-01-30T11:30:09;102445.41;;;7.12;100.00
53550;BME280;73079;52.914;-0.982;2024-01-30T11:32:35;102447.00;;;7.03;100.00
53550;BME280;73079;52.914;-0.982;2024-01-30T11:35:03;102447.75;;;7.06;100.00
53550;BME280;73079;52.914;-0.982;2024-01-30T11:37:31;102447.00;;;7.03;100.00
53550;BME280;73079;52.914;-0.982;2024-01-30T11:39:56;102441.69;;;7.15;100.00
53550;BME280;73079;52.914;-0.982;2024-01-30T11:42:24;102452.50;;;7.24;100.00
53550;BME280;73079;52.914;-0.982;2024-01-30T11:44:54;102449.59;;;7.39;100.00
53550;BME280;73079;52.914;-0.982;2024-01-30T11:47:22;102452.53;;;7.36;100.00
53550;BME280;73079;52.914;-0.982;2024-01-30T11:49:48;102445.59;;;7.45;100.00
53550;BME280;73079;52.914;-0.982;2024-01-30T11:52:14;102448.03;;;7.36;100.00
53550;BME280;73079;52.914;-0.982;2024-01-30T11:54:40;102457.22;;;7.21;100.00
53550;BME280;73079;52.914;-0.982;2024-01-30T11:57:06;102457.72;;;7.26;100.00
53550;BME280;73079;52.914;-0.982;2024-01-30T11:59:32;102466.00;;;7.23;100.00
53550;BME280;73079;52.914;-0.982;2024-01-30T12:01:57;102460.16;;;7.18;100.00
53550;BME280;73079;52.914;-0.982;2024-01-30T12:04:28;102467.06;;;7.20;100.00
53550;BME280;73079;52.914;-0.982;2024-01-30T12:06:54;102466.47;;;7.17;100.00
53550;BME280;73079;52.914;-0.982;2024-01-30T12:09:21;102466.47;;;7.17;100.00
53550;BME280;73079;52.914;-0.982;2024-01-30T12:11:48;102467.97;;;7.32;100.00
53550;BME280;73079;52.914;-0.982;2024-01-30T12:14:16;102471.25;;;7.47;100.00
53550;BME280;73079;52.914;-0.982;2024-01-30T12:16:42;102475.41;;;7.63;100.00
53550;BME280;73079;52.914;-0.982;2024-01-30T12:19:08;102480.38;;;7.78;100.00
53550;BME280;73079;52.914;-0.982;2024-01-30T12:21:38;102476.13;;;7.87;100.00
53550;BME280;73079;52.914;-0.982;2024-01-30T12:24:04;102478.41;;;7.58;100.00
53550;BME280;73079;52.914;-0.982;2024-01-30T12:26:32;102479.16;;;7.83;100.00
53550;BME280;73079;52.914;-0.982;2024-01-30T12:28:58;102487.66;;;7.88;100.00
53550;BME280;73079;52.914;-0.982;2024-01-30T12:31:28;102491.91;;;8.02;100.00
53550;BME280;73079;52.914;-0.982;2024-01-30T12:33:54;102506.16;;;7.68;86.38